sensor_id;sensor_type;location;lat;lon;timestamp;temperature;humidity
51739;DHT22;37815;52.692;6.226;2022-12-29T00:03:34;9.90;99.90
51739;DHT22;37815;52.692;6.226;2022-12-29T00:08:35;10.00;99.90
51739;DHT22;37815;52.692;6.226;2022-12-29T00:13:42;10.00;99.90
51739;DHT22;37815;52.692;6.226;2022-12-29T00:19:03;10.00;99.90
51739;DHT22;37815;52.692;6.226;2022-12-29T00:24:04;10.00;99.90
51739;DHT22;37815;52.692;6.226;2022-12-29T00:29:24;10.00;99.90
51739;DHT22;37815;52.692;6.226;2022-12-29T00:34:43;10.00;99.90
51739;DHT22;37815;52.692;6.226;2022-12-29T00:40:07;10.00;99.90
51739;DHT22;37815;52.692;6.226;2022-12-29T00:45:27;10.00;99.90
51739;DHT22;37815;52.692;6.226;2022-12-29T00:50:28;10.00;99.90
51739;DHT22;37815;52.692;6.226;2022-12-29T00:55:28;10.00;99.90
51739;DHT22;37815;52.692;6.226;2022-12-29T01:00:29;10.00;99.90
51739;DHT22;37815;52.692;6.226;2022-12-29T01:05:29;10.10;99.90
51739;DHT22;37815;52.692;6.226;2022-12-29T01:10:30;10.10;99.90
51739;DHT22;37815;52.692;6.226;2022-12-29T01:15:31;10.10;99.90
51739;DHT22;37815;52.692;6.226;2022-12-29T01:20:31;10.10;99.90
51739;DHT22;37815;52.692;6.226;2022-12-29T01:25:32;10.10;99.90
51739;DHT22;37815;52.692;6.226;2022-12-29T01:30:32;10.10;99.90
51739;DHT22;37815;52.692;6.226;2022-12-29T01:35:33;10.10;99.90
51739;DHT22;37815;52.692;6.226;2022-12-29T01:40:33;10.10;99.90
51739;DHT22;37815;52.692;6.226;2022-12-29T01:45:34;10.10;99.90
51739;DHT22;37815;52.692;6.226;2022-12-29T01:50:48;10.10;99.90
51739;DHT22;37815;52.692;6.226;2022-12-29T01:55:53;10.10;99.90
51739;DHT22;37815;52.692;6.226;2022-12-29T02:00:55;10.20;99.90
51739;DHT22;37815;52.692;6.226;2022-12-29T02:06:04;10.20;99.90
51739;DHT22;37815;52.692;6.226;2022-12-29T02:11:07;10.20;99.90
51739;DHT22;37815;52.692;6.226;2022-12-29T02:21:55;10.20;99.90
51739;DHT22;37815;52.692;6.226;2022-12-29T02:38:10;10.20;99.90
51739;DHT22;37815;52.692;6.226;2022-12-29T02:48:41;10.20;99.90
51739;DHT22;37815;52.692;6.226;2022-12-29T02:53:43;10.20;99.90
51739;DHT22;37815;52.692;6.226;2022-12-29T02:59:03;10.20;99.90
51739;DHT22;37815;52.692;6.226;2022-12-29T03:04:56;10.20;99.90
51739;DHT22;37815;52.692;6.226;2022-12-29T03:10:19;10.20;99.90
51739;DHT22;37815;52.692;6.226;2022-12-29T03:15:34;10.20;99.90
51739;DHT22;37815;52.692;6.226;2022-12-29T03:21:14;10.20;99.90
51739;DHT22;37815;52.692;6.226;2022-12-29T03:26:16;10.20;99.90
51739;DHT22;37815;52.692;6.226;2022-12-29T03:31:20;10.20;99.90
51739;DHT22;37815;52.692;6.226;2022-12-29T03:36:36;10.20;99.90
51739;DHT22;37815;52.692;6.226;2022-12-29T03:41:41;10.20;99.90
51739;DHT22;37815;52.692;6.226;2022-12-29T03:46:43;10.20;99.90
51739;DHT22;37815;52.692;6.226;2022-12-29T03:51:43;10.20;99.90
51739;DHT22;37815;52.692;6.226;2022-12-29T03:56:44;10.20;99.90
51739;DHT22;37815;52.692;6.226;2022-12-29T04:01:45;10.20;99.90
51739;DHT22;37815;52.692;6.226;2022-12-29T04:06:46;10.20;99.90
51739;DHT22;37815;52.692;6.226;2022-12-29T04:11:47;10.20;99.90
51739;DHT22;37815;52.692;6.226;2022-12-29T04:16:47;10.20;99.90
51739;DHT22;37815;52.692;6.226;2022-12-29T04:21:50;10.20;99.90
51739;DHT22;37815;52.692;6.226;2022-12-29T04:26:51;10.20;99.90
51739;DHT22;37815;52.692;6.226;2022-12-29T04:31:51;10.20;99.90
51739;DHT22;37815;52.692;6.226;2022-12-29T04:36:52;10.20;99.90
51739;DHT22;37815;52.692;6.226;2022-12-29T04:41:52;10.90;99.90
51739;DHT22;37815;52.692;6.226;2022-12-29T04:46:53;10.20;99.90
51739;DHT22;37815;52.692;6.226;2022-12-29T04:51:54;10.20;99.90
51739;DHT22;37815;52.692;6.226;2022-12-29T04:56:54;10.20;99.90
51739;DHT22;37815;52.692;6.226;2022-12-29T05:01:55;10.20;99.90
51739;DHT22;37815;52.692;6.226;2022-12-29T05:06:55;10.20;99.90
51739;DHT22;37815;52.692;6.226;2022-12-29T05:11:56;10.20;99.90
51739;DHT22;37815;52.692;6.226;2022-12-29T05:16:56;10.20;99.90
51739;DHT22;37815;52.692;6.226;2022-12-29T05:21:57;10.20;99.90
51739;DHT22;37815;52.692;6.226;2022-12-29T05:26:58;10.20;99.90
51739;DHT22;37815;52.692;6.226;2022-12-29T05:31:58;10.20;99.90
51739;DHT22;37815;52.692;6.226;2022-12-29T05:36:59;10.20;99.90
51739;DHT22;37815;52.692;6.226;2022-12-29T05:41:59;10.20;99.90
51739;DHT22;37815;52.692;6.226;2022-12-29T05:47:00;10.20;99.90
51739;DHT22;37815;52.692;6.226;2022-12-29T05:52:01;10.20;99.90
51739;DHT22;37815;52.692;6.226;2022-12-29T05:57:01;10.20;99.90
51739;DHT22;37815;52.692;6.226;2022-12-29T06:02:02;10.20;99.90
51739;DHT22;37815;52.692;6.226;2022-12-29T06:07:03;10.20;99.90
51739;DHT22;37815;52.692;6.226;2022-12-29T06:12:03;10.10;99.90
51739;DHT22;37815;52.692;6.226;2022-12-29T06:17:04;10.20;99.90
51739;DHT22;37815;52.692;6.226;2022-12-29T06:22:05;10.20;99.90
51739;DHT22;37815;52.692;6.226;2022-12-29T06:27:06;10.20;99.90
51739;DHT22;37815;52.692;6.226;2022-12-29T06:32:07;10.20;99.90
51739;DHT22;37815;52.692;6.226;2022-12-29T06:37:07;10.10;99.90
51739;DHT22;37815;52.692;6.226;2022-12-29T06:42:09;10.20;99.90
51739;DHT22;37815;52.692;6.226;2022-12-29T06:47:09;10.20;99.90
51739;DHT22;37815;52.692;6.226;2022-12-29T06:52:10;10.10;99.90
51739;DHT22;37815;52.692;6.226;2022-12-29T06:57:11;10.10;99.90
51739;DHT22;37815;52.692;6.226;2022-12-29T07:02:11;10.10;99.90
51739;DHT22;37815;52.692;6.226;2022-12-29T07:07:13;10.10;99.90
51739;DHT22;37815;52.692;6.226;2022-12-29T07:12:14;10.20;99.90
51739;DHT22;37815;52.692;6.226;2022-12-29T07:17:15;10.10;99.90
51739;DHT22;37815;52.692;6.226;2022-12-29T07:22:16;10.10;99.90
51739;DHT22;37815;52.692;6.226;2022-12-29T07:27:16;10.10;99.90
51739;DHT22;37815;52.692;6.226;2022-12-29T07:32:17;10.10;99.90
51739;DHT22;37815;52.692;6.226;2022-12-29T07:37:18;10.10;99.90
51739;DHT22;37815;52.692;6.226;2022-12-29T07:42:18;10.10;99.90
51739;DHT22;37815;52.692;6.226;2022-12-29T07:47:19;10.10;99.90
51739;DHT22;37815;52.692;6.226;2022-12-29T07:52:20;10.10;99.90
51739;DHT22;37815;52.692;6.226;2022-12-29T07:57:20;10.10;99.90
51739;DHT22;37815;52.692;6.226;2022-12-29T08:02:21;10.10;99.90
51739;DHT22;37815;52.692;6.226;2022-12-29T08:07:21;10.10;99.90
51739;DHT22;37815;52.692;6.226;2022-12-29T08:12:22;10.10;99.90
51739;DHT22;37815;52.692;6.226;2022-12-29T08:17:23;10.10;99.90
51739;DHT22;37815;52.692;6.226;2022-12-29T08:22:23;10.10;99.90
51739;DHT22;37815;52.692;6.226;2022-12-29T08:27:25;10.20;99.90
51739;DHT22;37815;52.692;6.226;2022-12-29T08:32:27;10.20;99.90
51739;DHT22;37815;52.692;6.226;2022-12-29T08:37:28;10.20;99.90
51739;DHT22;37815;52.692;6.226;2022-12-29T08:42:30;10.20;99.90
51739;DHT22;37815;52.692;6.226;2022-12-29T08:47:31;10.20;99.90
51739;DHT22;37815;52.692;6.226;2022-12-29T08:52:32;10.20;99.90
51739;DHT22;37815;52.692;6.226;2022-12-29T08:57:32;10.30;99.90
51739;DHT22;37815;52.692;6.226;2022-12-29T09:02:33;10.20;99.90
51739;DHT22;37815;52.692;6.226;2022-12-29T09:07:33;10.30;99.90
51739;DHT22;37815;52.692;6.226;2022-12-29T09:12:34;10.50;99.90
51739;DHT22;37815;52.692;6.226;2022-12-29T09:17:35;10.30;99.90
51739;DHT22;37815;52.692;6.226;2022-12-29T09:22:43;10.30;99.90
51739;DHT22;37815;52.692;6.226;2022-12-29T09:27:44;10.30;99.90
51739;DHT22;37815;52.692;6.226;2022-12-29T09:32:45;10.30;99.90
51739;DHT22;37815;52.692;6.226;2022-12-29T09:37:46;10.30;99.90
51739;DHT22;37815;52.692;6.226;2022-12-29T09:48:14;10.20;99.90
51739;DHT22;37815;52.692;6.226;2022-12-29T09:53:38;10.20;99.90
51739;DHT22;37815;52.692;6.226;2022-12-29T09:58:43;10.20;99.90
51739;DHT22;37815;52.692;6.226;2022-12-29T10:03:51;10.20;99.90
51739;DHT22;37815;52.692;6.226;2022-12-29T10:25:25;10.20;99.90
51739;DHT22;37815;52.692;6.226;2022-12-29T10:30:26;10.20;99.90
51739;DHT22;37815;52.692;6.226;2022-12-29T10:35:32;10.30;99.90
51739;DHT22;37815;52.692;6.226;2022-12-29T10:40:42;10.30;99.90
51739;DHT22;37815;52.692;6.226;2022-12-29T10:45:44;10.30;99.90
51739;DHT22;37815;52.692;6.226;2022-12-29T10:50:44;10.30;99.90
51739;DHT22;37815;52.692;6.226;2022-12-29T10:55:46;10.30;99.90
51739;DHT22;37815;52.692;6.226;2022-12-29T11:00:51;10.30;99.90
51739;DHT22;37815;52.692;6.226;2022-12-29T11:11:08;10.30;99.90
51739;DHT22;37815;52.692;6.226;2022-12-29T11:16:12;10.30;99.90
51739;DHT22;37815;52.692;6.226;2022-12-29T11:21:34;10.50;99.90
51739;DHT22;37815;52.692;6.226;2022-12-29T11:26:43;10.30;99.90
51739;DHT22;37815;52.692;6.226;2022-12-29T11:31:56;10.30;99.90
51739;DHT22;37815;52.692;6.226;2022-12-29T11:42:16;10.30;99.90
51739;DHT22;37815;52.692;6.226;2022-12-29T11:47:44;10.30;99.90
51739;DHT22;37815;52.692;6.226;2022-12-29T11:52:49;10.30;99.90
51739;DHT22;37815;52.692;6.226;2022-12-29T11:57:52;10.30;99.90
51739;DHT22;37815;52.692;6.226;2022-12-29T12:08:05;10.40;99.90
51739;DHT22;37815;52.692;6.226;2022-12-29T12:13:18;10.40;99.90
51739;DHT22;37815;52.692;6.226;2022-12-29T12:18:34;10.30;99.90
51739;DHT22;37815;52.692;6.226;2022-12-29T12:29:20;10.30;99.90
51739;DHT22;37815;52.692;6.226;2022-12-29T12:34:36;10.30;99.90
51739;DHT22;37815;52.692;6.226;2022-12-29T12:45:26;10.40;99.90
51739;DHT22;37815;52.692;6.226;2022-12-29T12:56:15;10.40;99.90
51739;DHT22;37815;52.692;6.226;2022-12-29T13:07:00;10.30;99.90
51739;DHT22;37815;52.692;6.226;2022-12-29T13:17:49;10.40;99.90
51739;DHT22;37815;52.692;6.226;2022-12-29T13:23:09;10.40;99.90
51739;DHT22;37815;52.692;6.226;2022-12-29T13:38:45;10.40;99.90
51739;DHT22;37815;52.692;6.226;2022-12-29T13:43:47;10.40;99.90
51739;DHT22;37815;52.692;6.226;2022-12-29T13:48:53;10.40;99.90
51739;DHT22;37815;52.692;6.226;2022-12-29T13:54:03;10.40;99.90
51739;DHT22;37815;52.692;6.226;2022-12-29T14:04:29;10.40;99.90
51739;DHT22;37815;52.692;6.226;2022-12-29T14:09:44;10.40;99.90
51739;DHT22;37815;52.692;6.226;2022-12-29T14:14:46;10.40;99.90
51739;DHT22;37815;52.692;6.226;2022-12-29T14:19:52;10.40;99.90
51739;DHT22;37815;52.692;6.226;2022-12-29T14:24:54;10.40;99.90
51739;DHT22;37815;52.692;6.226;2022-12-29T14:29:55;10.40;99.90
51739;DHT22;37815;52.692;6.226;2022-12-29T14:34:57;10.40;99.90
51739;DHT22;37815;52.692;6.226;2022-12-29T14:40:21;10.40;99.90
51739;DHT22;37815;52.692;6.226;2022-12-29T14:45:29;10.40;99.90
51739;DHT22;37815;52.692;6.226;2022-12-29T14:55:43;10.40;99.90
51739;DHT22;37815;52.692;6.226;2022-12-29T15:00:47;10.40;99.90
51739;DHT22;37815;52.692;6.226;2022-12-29T15:06:03;10.40;99.90
51739;DHT22;37815;52.692;6.226;2022-12-29T15:11:06;10.30;99.90
51739;DHT22;37815;52.692;6.226;2022-12-29T15:16:33;10.30;99.90
51739;DHT22;37815;52.692;6.226;2022-12-29T15:21:35;10.30;99.90
51739;DHT22;37815;52.692;6.226;2022-12-29T15:26:38;10.30;99.90
51739;DHT22;37815;52.692;6.226;2022-12-29T15:31:46;10.30;99.90
51739;DHT22;37815;52.692;6.226;2022-12-29T15:36:50;10.30;99.90
51739;DHT22;37815;52.692;6.226;2022-12-29T15:41:56;10.30;99.90
51739;DHT22;37815;52.692;6.226;2022-12-29T15:47:04;10.30;99.90
51739;DHT22;37815;52.692;6.226;2022-12-29T15:52:07;10.30;99.90
51739;DHT22;37815;52.692;6.226;2022-12-29T15:57:24;10.30;99.90
51739;DHT22;37815;52.692;6.226;2022-12-29T16:02:25;10.30;99.90
51739;DHT22;37815;52.692;6.226;2022-12-29T16:07:31;10.30;99.90
51739;DHT22;37815;52.692;6.226;2022-12-29T16:12:35;10.20;99.90
51739;DHT22;37815;52.692;6.226;2022-12-29T16:17:47;10.20;99.90
51739;DHT22;37815;52.692;6.226;2022-12-29T16:22:56;10.20;99.90
51739;DHT22;37815;52.692;6.226;2022-12-29T16:27:59;10.20;99.90
51739;DHT22;37815;52.692;6.226;2022-12-29T16:33:03;10.20;99.90
51739;DHT22;37815;52.692;6.226;2022-12-29T16:38:14;10.20;99.90
51739;DHT22;37815;52.692;6.226;2022-12-29T16:43:35;10.10;99.90
51739;DHT22;37815;52.692;6.226;2022-12-29T16:48:50;10.20;99.90
51739;DHT22;37815;52.692;6.226;2022-12-29T16:53:53;10.20;99.90
51739;DHT22;37815;52.692;6.226;2022-12-29T16:59:07;10.20;99.90
51739;DHT22;37815;52.692;6.226;2022-12-29T17:04:11;10.20;99.90
51739;DHT22;37815;52.692;6.226;2022-12-29T17:09:20;10.10;99.90
51739;DHT22;37815;52.692;6.226;2022-12-29T17:19:34;10.10;99.90
51739;DHT22;37815;52.692;6.226;2022-12-29T17:24:35;10.40;99.90
51739;DHT22;37815;52.692;6.226;2022-12-29T17:29:38;10.10;99.90
51739;DHT22;37815;52.692;6.226;2022-12-29T17:34:40;10.10;99.90
51739;DHT22;37815;52.692;6.226;2022-12-29T17:39:41;10.10;99.90
51739;DHT22;37815;52.692;6.226;2022-12-29T17:44:41;9.80;99.90
51739;DHT22;37815;52.692;6.226;2022-12-29T17:49:43;10.10;99.90
51739;DHT22;37815;52.692;6.226;2022-12-29T17:54:50;10.10;99.90
51739;DHT22;37815;52.692;6.226;2022-12-29T17:59:51;10.10;99.90
51739;DHT22;37815;52.692;6.226;2022-12-29T18:04:52;10.10;99.90
51739;DHT22;37815;52.692;6.226;2022-12-29T18:09:53;10.10;99.90
51739;DHT22;37815;52.692;6.226;2022-12-29T18:14:54;10.10;99.90
51739;DHT22;37815;52.692;6.226;2022-12-29T18:19:55;10.10;99.90
51739;DHT22;37815;52.692;6.226;2022-12-29T18:24:55;10.10;99.90
51739;DHT22;37815;52.692;6.226;2022-12-29T18:29:56;10.10;99.90
51739;DHT22;37815;52.692;6.226;2022-12-29T18:34:56;10.10;99.90
51739;DHT22;37815;52.692;6.226;2022-12-29T18:39:57;10.00;99.90
51739;DHT22;37815;52.692;6.226;2022-12-29T18:44:58;10.00;99.90
51739;DHT22;37815;52.692;6.226;2022-12-29T18:49:59;10.00;99.90
51739;DHT22;37815;52.692;6.226;2022-12-29T18:54:59;10.00;99.90
51739;DHT22;37815;52.692;6.226;2022-12-29T19:00:00;10.00;99.90
51739;DHT22;37815;52.692;6.226;2022-12-29T19:05:01;10.00;99.90
51739;DHT22;37815;52.692;6.226;2022-12-29T19:10:01;10.00;99.90
51739;DHT22;37815;52.692;6.226;2022-12-29T19:15:03;10.00;99.90
51739;DHT22;37815;52.692;6.226;2022-12-29T19:20:09;9.90;99.90
51739;DHT22;37815;52.692;6.226;2022-12-29T19:25:21;10.00;99.90
51739;DHT22;37815;52.692;6.226;2022-12-29T19:30:22;9.90;99.90
51739;DHT22;37815;52.692;6.226;2022-12-29T19:35:25;9.90;99.90
51739;DHT22;37815;52.692;6.226;2022-12-29T19:40:27;9.90;99.90
51739;DHT22;37815;52.692;6.226;2022-12-29T19:45:28;9.90;99.90
51739;DHT22;37815;52.692;6.226;2022-12-29T19:50:29;9.90;99.90
51739;DHT22;37815;52.692;6.226;2022-12-29T19:55:29;9.90;99.90
51739;DHT22;37815;52.692;6.226;2022-12-29T20:00:30;9.90;99.90
51739;DHT22;37815;52.692;6.226;2022-12-29T20:05:31;9.90;99.90
51739;DHT22;37815;52.692;6.226;2022-12-29T20:10:32;9.80;99.90
51739;DHT22;37815;52.692;6.226;2022-12-29T20:15:32;9.80;99.90
51739;DHT22;37815;52.692;6.226;2022-12-29T20:20:33;9.80;99.90
51739;DHT22;37815;52.692;6.226;2022-12-29T20:25:34;9.80;99.90
51739;DHT22;37815;52.692;6.226;2022-12-29T20:30:35;9.80;99.90
51739;DHT22;37815;52.692;6.226;2022-12-29T20:35:36;9.80;99.90
51739;DHT22;37815;52.692;6.226;2022-12-29T20:40:36;9.80;99.90
51739;DHT22;37815;52.692;6.226;2022-12-29T20:45:37;9.80;99.90
51739;DHT22;37815;52.692;6.226;2022-12-29T20:50:38;10.70;99.90
51739;DHT22;37815;52.692;6.226;2022-12-29T20:55:39;9.70;99.90
51739;DHT22;37815;52.692;6.226;2022-12-29T21:00:40;9.70;99.90
51739;DHT22;37815;52.692;6.226;2022-12-29T21:05:40;9.70;99.90
51739;DHT22;37815;52.692;6.226;2022-12-29T21:10:44;9.70;99.90
51739;DHT22;37815;52.692;6.226;2022-12-29T21:15:47;9.70;99.90
51739;DHT22;37815;52.692;6.226;2022-12-29T21:21:01;9.70;99.90
51739;DHT22;37815;52.692;6.226;2022-12-29T21:26:06;9.60;99.90
51739;DHT22;37815;52.692;6.226;2022-12-29T21:31:11;9.60;99.90
51739;DHT22;37815;52.692;6.226;2022-12-29T21:36:15;9.60;99.90
51739;DHT22;37815;52.692;6.226;2022-12-29T21:41:16;9.60;99.90
51739;DHT22;37815;52.692;6.226;2022-12-29T21:46:16;9.60;99.90
51739;DHT22;37815;52.692;6.226;2022-12-29T21:51:17;9.60;99.90
51739;DHT22;37815;52.692;6.226;2022-12-29T21:56:36;9.60;99.90
51739;DHT22;37815;52.692;6.226;2022-12-29T22:01:37;9.60;99.90
51739;DHT22;37815;52.692;6.226;2022-12-29T22:06:56;9.60;99.90
51739;DHT22;37815;52.692;6.226;2022-12-29T22:12:16;9.60;99.90
51739;DHT22;37815;52.692;6.226;2022-12-29T22:17:35;9.60;99.90
51739;DHT22;37815;52.692;6.226;2022-12-29T22:22:36;9.60;99.90
51739;DHT22;37815;52.692;6.226;2022-12-29T22:27:36;9.60;99.90
51739;DHT22;37815;52.692;6.226;2022-12-29T22:32:37;9.60;99.90
51739;DHT22;37815;52.692;6.226;2022-12-29T22:37:40;9.60;99.90
51739;DHT22;37815;52.692;6.226;2022-12-29T22:42:41;9.60;99.90
51739;DHT22;37815;52.692;6.226;2022-12-29T22:47:41;9.60;99.90
51739;DHT22;37815;52.692;6.226;2022-12-29T22:52:42;9.60;99.90
51739;DHT22;37815;52.692;6.226;2022-12-29T22:57:42;9.50;99.90
51739;DHT22;37815;52.692;6.226;2022-12-29T23:02:43;9.60;99.90
51739;DHT22;37815;52.692;6.226;2022-12-29T23:07:44;9.50;99.90
51739;DHT22;37815;52.692;6.226;2022-12-29T23:12:44;9.50;99.90
51739;DHT22;37815;52.692;6.226;2022-12-29T23:17:47;9.50;99.90
51739;DHT22;37815;52.692;6.226;2022-12-29T23:22:47;9.50;99.90
51739;DHT22;37815;52.692;6.226;2022-12-29T23:27:48;9.50;99.90
51739;DHT22;37815;52.692;6.226;2022-12-29T23:32:48;9.50;99.90
51739;DHT22;37815;52.692;6.226;2022-12-29T23:37:49;9.50;99.90
51739;DHT22;37815;52.692;6.226;2022-12-29T23:42:50;9.40;99.90
51739;DHT22;37815;52.692;6.226;2022-12-29T23:47:50;9.50;99.90
51739;DHT22;37815;52.692;6.226;2022-12-29T23:52:51;9.40;99.90
51739;DHT22;37815;52.692;6.226;2022-12-29T23:57:52;9.40;99.90
